Time;durP1;ratioP1;P1;durP2;ratioP2;P2;SDS_P1;SDS_P2;PMS_P1;PMS_P2;Temp;Humidity;BMP_temperature;BMP_pressure;BME280_temperature;BME280_humidity;BME280_pressure;Samples;Min_cycle;Max_cycle;Signal;HPM_P1;HPM_P2
2022/06/13 00:02:11;;;;;;;5.00;2.75;;;16.30;99.90;;;;;;4993671;28;20161;-56
2022/06/13 00:04:37;;;;;;;6.40;2.60;;;16.20;99.90;;;;;;4994227;28;20180;-56
2022/06/13 00:07:03;;;;;;;6.65;2.40;;;16.20;99.90;;;;;;4994020;28;20177;-55
2022/06/13 00:09:29;;;;;;;4.95;2.78;;;16.10;99.90;;;;;;4994514;28;20534;-56
2022/06/13 00:11:55;;;;;;;5.82;2.45;;;16.30;99.90;;;;;;4994291;28;20228;-56
2022/06/13 00:14:21;;;;;;;5.68;2.60;;;16.30;99.90;;;;;;4994000;28;20173;-56
2022/06/13 00:16:46;;;;;;;5.93;2.88;;;16.20;99.90;;;;;;4994256;28;20172;-56
2022/06/13 00:19:12;;;;;;;4.88;2.30;;;16.20;99.90;;;;;;4993749;28;20216;-56
2022/06/13 00:21:38;;;;;;;6.63;2.30;;;16.20;99.90;;;;;;4993913;28;20393;-56
2022/06/13 00:24:07;;;;;;;10.30;2.75;;;16.20;99.90;;;;;;4993731;28;20199;-55
2022/06/13 00:26:34;;;;;;;8.80;2.97;;;16.00;99.90;;;;;;4993725;28;20186;-56
2022/06/13 00:29:01;;;;;;;6.07;2.65;;;16.00;99.90;;;;;;4993757;28;20176;-56
2022/06/13 00:31:26;;;;;;;5.43;3.10;;;16.10;99.90;;;;;;4994054;28;20176;-56
2022/06/13 00:33:52;;;;;;;7.03;3.63;;;16.20;99.90;;;;;;4993672;28;20169;-56
2022/06/13 00:36:21;;;;;;;8.18;2.90;;;16.20;99.90;;;;;;4993542;28;20184;-56
2022/06/13 00:38:48;;;;;;;7.00;3.15;;;16.00;99.90;;;;;;4993709;28;20208;-56
2022/06/13 00:41:24;;;;;;;9.60;3.25;;;15.90;99.90;;;;;;4992766;28;20165;-56
2022/06/13 00:43:51;;;;;;;7.80;2.72;;;15.90;99.90;;;;;;4993403;28;20611;-56
2022/06/13 00:46:17;;;;;;;5.13;3.13;;;15.80;99.90;;;;;;4993674;28;20247;-56
2022/06/13 00:48:43;;;;;;;6.05;3.40;;;15.80;99.90;;;;;;4993262;28;20251;-56
2022/06/13 00:51:09;;;;;;;6.50;2.75;;;15.90;99.90;;;;;;4993286;28;20173;-56
2022/06/13 00:53:37;;;;;;;11.32;2.95;;;15.70;99.90;;;;;;4993505;28;20263;-56
2022/06/13 00:56:09;;;;;;;8.85;2.92;;;15.70;99.90;;;;;;4993494;28;20180;-57
2022/06/13 00:58:39;;;;;;;10.23;2.80;;;15.80;99.90;;;;;;4993187;28;20204;-57
2022/06/13 01:01:05;;;;;;;5.55;2.92;;;15.80;99.90;;;;;;4993042;28;20180;-56
2022/06/13 01:03:33;;;;;;;8.38;2.75;;;15.80;99.90;;;;;;4993120;28;20259;-56
2022/06/13 01:06:01;;;;;;;8.25;3.20;;;15.70;99.90;;;;;;4993397;28;20169;-56
2022/06/13 01:08:30;;;;;;;10.23;3.60;;;15.60;99.90;;;;;;4993214;28;20189;-56
2022/06/13 01:11:16;;;;;;;10.88;4.18;;;15.60;99.90;;;;;;4993311;28;20175;-56
2022/06/13 01:14:08;;;;;;;7.10;3.30;;;15.70;99.90;;;;;;4975416;28;20181;-56
2022/06/13 01:17:11;;;;;;;7.40;3.30;;;15.70;99.90;;;;;;4992905;28;20609;-56
2022/06/13 01:19:57;;;;;;;6.80;3.25;;;15.60;99.90;;;;;;4975437;28;20188;-56
2022/06/13 01:22:46;;;;;;;11.85;3.25;;;15.50;99.90;;;;;;4992845;28;20169;-56
2022/06/13 01:25:29;;;;;;;8.10;2.67;;;15.60;99.90;;;;;;4992737;28;20634;-56
2022/06/13 01:28:00;;;;;;;6.68;3.05;;;15.70;99.90;;;;;;4993071;28;20215;-56
2022/06/13 01:30:45;;;;;;;10.25;3.80;;;15.60;99.90;;;;;;4992947;28;20223;-57
2022/06/13 01:33:25;;;;;;;8.52;3.20;;;15.70;99.90;;;;;;4992799;28;20168;-56
2022/06/13 01:36:28;;;;;;;11.48;3.85;;;15.60;99.90;;;;;;4992691;28;20177;-56
2022/06/13 01:39:02;;;;;;;7.25;2.95;;;15.50;99.90;;;;;;4992494;28;20208;-56
2022/06/13 01:41:54;;;;;;;7.60;2.95;;;15.60;99.90;;;;;;4992884;28;20648;-56
2022/06/13 01:44:34;;;;;;;15.20;3.53;;;15.60;99.90;;;;;;4992583;28;20179;-56
2022/06/13 01:47:29;;;;;;;10.68;3.33;;;15.50;99.90;;;;;;4992669;28;20164;-56
2022/06/13 01:50:01;;;;;;;6.63;3.38;;;15.40;99.90;;;;;;4992497;28;20275;-56
2022/06/13 01:52:47;;;;;;;9.20;3.97;;;15.30;99.90;;;;;;4994084;28;20169;-56
2022/06/13 01:55:18;;;;;;;10.25;3.00;;;15.30;99.90;;;;;;4996499;28;20179;-56
2022/06/13 01:58:10;;;;;;;10.45;3.65;;;15.30;99.90;;;;;;4996514;28;20226;-56
2022/06/13 02:00:39;;;;;;;5.93;2.72;;;15.30;99.90;;;;;;4989967;28;20191;-56
2022/06/13 02:03:36;;;;;;;15.98;3.92;;;15.20;99.90;;;;;;4996316;28;20183;-57
2022/06/13 02:06:16;;;;;;;14.02;3.47;;;15.10;99.90;;;;;;4996061;28;20184;-56
2022/06/13 02:09:03;;;;;;;13.73;3.90;;;15.10;99.90;;;;;;4996429;28;20220;-56
2022/06/13 02:11:35;;;;;;;14.20;4.55;;;15.00;99.90;;;;;;4996228;28;20656;-56
2022/06/13 02:14:19;;;;;;;12.07;3.47;;;15.10;99.90;;;;;;4996313;28;20180;-56
2022/06/13 02:16:51;;;;;;;16.13;3.88;;;14.90;99.90;;;;;;4996167;28;20653;-56
2022/06/13 02:19:24;;;;;;;14.38;3.75;;;14.90;99.90;;;;;;4996022;28;20561;-56
2022/06/13 02:22:00;;;;;;;10.98;3.60;;;15.00;99.90;;;;;;4995987;28;20173;-56
2022/06/13 02:24:34;;;;;;;15.05;3.88;;;15.00;99.90;;;;;;4996340;28;20204;-56
2022/06/13 02:27:03;;;;;;;7.50;3.92;;;15.10;99.90;;;;;;4996035;28;20222;-56
2022/06/13 02:29:49;;;;;;;11.23;3.15;;;15.10;99.90;;;;;;4978586;28;20165;-56
2022/06/13 02:32:23;;;;;;;12.70;4.00;;;14.90;99.90;;;;;;4995843;28;20176;-56
2022/06/13 02:35:00;;;;;;;10.43;3.33;;;15.00;99.90;;;;;;4996085;28;20184;-56
2022/06/13 02:37:32;;;;;;;7.28;3.33;;;15.00;99.90;;;;;;4996013;28;20234;-56
2022/06/13 02:40:06;;;;;;;7.50;3.58;;;14.90;99.90;;;;;;4996022;28;20177;-56
2022/06/13 02:42:46;;;;;;;13.43;3.35;;;14.90;99.90;;;;;;4995797;28;20173;-56
2022/06/13 02:45:19;;;;;;;9.25;3.28;;;14.90;99.90;;;;;;4995600;28;20629;-56
2022/06/13 02:48:18;;;;;;;7.68;3.40;;;15.00;99.90;;;;;;4995543;28;20264;-56
2022/06/13 02:51:28;;;;;;;9.88;3.25;;;14.90;99.90;;;;;;4995620;28;20223;-56
2022/06/13 02:54:08;;;;;;;10.68;3.33;;;14.90;99.90;;;;;;4995754;28;20192;-56
2022/06/13 02:59:56;;;;;;;9.70;3.53;;;14.70;99.90;;;;;;4995338;28;20278;-56
2022/06/13 03:02:30;;;;;;;8.93;3.47;;;14.70;99.90;;;;;;4995365;28;20172;-56
2022/06/13 03:05:08;;;;;;;8.30;3.88;;;14.70;99.90;;;;;;4994759;28;20163;-56
2022/06/13 03:07:42;;;;;;;9.60;3.17;;;14.60;99.90;;;;;;4995244;28;20172;-56
2022/06/13 03:10:21;;;;;;;6.18;3.40;;;14.70;99.90;;;;;;4995245;28;20649;-56
2022/06/13 03:13:08;;;;;;;7.00;3.55;;;14.70;99.90;;;;;;4995442;28;20188;-56
2022/06/13 03:15:57;;;;;;;8.98;3.33;;;14.70;99.90;;;;;;4995203;28;20176;-56
2022/06/13 03:18:27;;;;;;;7.93;3.60;;;14.80;99.90;;;;;;4994508;28;20227;-56
2022/06/13 03:21:04;;;;;;;8.88;3.95;;;14.80;99.90;;;;;;4994982;28;20311;-56
2022/06/13 03:23:41;;;;;;;10.65;4.00;;;14.80;99.90;;;;;;4995211;28;20514;-56
2022/06/13 03:26:15;;;;;;;9.38;4.25;;;14.70;99.90;;;;;;4994825;28;20161;-56
2022/06/13 03:28:52;;;;;;;6.45;3.80;;;14.60;99.90;;;;;;4994899;28;20183;-56
2022/06/13 03:31:35;;;;;;;5.40;3.75;;;14.60;99.90;;;;;;4994822;28;20263;-56
2022/06/13 03:34:09;;;;;;;8.75;3.38;;;14.60;99.90;;;;;;4994763;28;20650;-56
2022/06/13 03:36:42;;;;;;;7.22;3.85;;;14.60;99.90;;;;;;4995005;28;20179;-56
2022/06/13 03:39:20;;;;;;;8.55;4.18;;;14.60;99.90;;;;;;4994589;28;20227;-56
2022/06/13 03:41:52;;;;;;;6.57;4.35;;;14.50;99.90;;;;;;4994611;28;20537;-56
2022/06/13 03:44:37;;;;;;;10.90;3.83;;;14.60;99.90;;;;;;4977131;28;20173;-56
2022/06/13 03:47:27;;;;;;;10.52;3.63;;;14.70;99.90;;;;;;4994703;28;20176;-56
2022/06/13 03:50:29;;;;;;;7.63;3.47;;;14.70;99.90;;;;;;4994679;28;20291;-56
2022/06/13 03:53:06;;;;;;;9.13;3.85;;;14.80;99.90;;;;;;4994770;28;20184;-56
2022/06/13 03:55:39;;;;;;;9.10;3.75;;;14.80;99.90;;;;;;4994277;28;20510;-56
2022/06/13 03:58:16;;;;;;;6.82;3.08;;;14.90;99.90;;;;;;4994285;28;20236;-56
2022/06/13 04:00:51;;;;;;;6.43;3.47;;;14.80;99.90;;;;;;4994175;28;20601;-56
2022/06/13 04:03:18;;;;;;;8.70;4.43;;;14.80;99.90;;;;;;4994132;28;20242;-56
2022/06/13 04:05:57;;;;;;;8.30;3.75;;;14.70;99.90;;;;;;4994169;28;20196;-56
2022/06/13 04:08:23;;;;;;;7.65;3.53;;;14.60;99.90;;;;;;4994289;28;20734;-56
2022/06/13 04:11:04;;;;;;;14.77;4.05;;;14.80;99.90;;;;;;4993900;28;20172;-56
2022/06/13 04:14:14;;;;;;;9.18;5.10;;;15.00;99.90;;;;;;4994220;28;20235;-56
2022/06/13 04:16:39;;;;;;;8.60;4.00;;;15.10;99.90;;;;;;4947285;28;20184;-56
2022/06/13 04:19:30;;;;;;;8.20;3.75;;;15.00;99.90;;;;;;4993938;28;20204;-56
2022/06/13 04:22:09;;;;;;;9.95;4.15;;;15.10;99.90;;;;;;4994253;28;20251;-56
2022/06/13 04:24:57;;;;;;;14.52;4.10;;;15.20;99.90;;;;;;4993837;28;20263;-56
2022/06/13 04:27:28;;;;;;;10.48;3.85;;;15.30;99.90;;;;;;4994348;28;20246;-56
2022/06/13 04:30:17;;;;;;;9.45;3.53;;;15.40;99.90;;;;;;4994122;28;20169;-56
2022/06/13 04:33:07;;;;;;;9.40;3.60;;;15.50;99.90;;;;;;4993620;28;20251;-56
2022/06/13 04:35:34;;;;;;;8.93;4.05;;;15.50;99.90;;;;;;4993608;28;20169;-56
2022/06/13 04:38:03;;;;;;;9.07;3.90;;;15.40;99.90;;;;;;4993429;28;20619;-56
2022/06/13 04:40:31;;;;;;;10.68;3.80;;;15.60;99.90;;;;;;4993767;28;20179;-56
2022/06/13 04:42:58;;;;;;;14.25;4.05;;;15.60;99.90;;;;;;4993849;28;20183;-56
2022/06/13 04:45:31;;;;;;;13.68;4.18;;;15.50;99.90;;;;;;4993706;28;20169;-56
2022/06/13 04:47:58;;;;;;;15.07;3.75;;;15.60;99.90;;;;;;4993604;28;20219;-55
2022/06/13 04:50:37;;;;;;;10.77;4.00;;;15.50;99.90;;;;;;4976162;28;20665;-56
2022/06/13 04:53:07;;;;;;;10.65;4.47;;;15.40;99.90;;;;;;4993235;28;20180;-56
2022/06/13 04:55:40;;;;;;;13.02;4.07;;;15.50;99.90;;;;;;4993302;28;20681;-56
2022/06/13 04:58:16;;;;;;;11.70;4.88;;;15.50;99.90;;;;;;4993094;28;20213;-56
2022/06/13 05:00:44;;;;;;;10.23;3.78;;;15.50;99.90;;;;;;4993080;28;20196;-56
2022/06/13 05:03:21;;;;;;;11.18;4.20;;;15.60;99.90;;;;;;4993047;28;20236;-56
2022/06/13 05:05:52;;;;;;;10.77;3.47;;;15.50;99.90;;;;;;4993010;28;20202;-56
2022/06/13 05:08:28;;;;;;;10.40;3.92;;;15.40;99.90;;;;;;4992992;28;20549;-56
2022/06/13 05:11:00;;;;;;;10.63;4.10;;;15.40;99.90;;;;;;4993262;28;20175;-56
2022/06/13 05:13:26;;;;;;;16.65;5.20;;;15.40;99.90;;;;;;4993340;28;20223;-55
2022/06/13 05:16:05;;;;;;;11.13;3.60;;;16.00;99.90;;;;;;4993236;28;20173;-56
2022/06/13 05:18:31;;;;;;;18.23;3.95;;;15.40;99.90;;;;;;4992752;28;20295;-56
2022/06/13 05:21:02;;;;;;;13.10;4.28;;;15.50;99.90;;;;;;4993206;28;20243;-56
2022/06/13 05:23:39;;;;;;;25.08;5.20;;;15.60;99.90;;;;;;4992767;28;20182;-56
2022/06/13 05:26:06;;;;;;;16.38;4.30;;;15.70;99.90;;;;;;4992802;28;20564;-56
2022/06/13 05:28:34;;;;;;;12.60;4.70;;;15.80;99.90;;;;;;4992339;28;20528;-56
2022/06/13 05:31:07;;;;;;;16.55;4.75;;;15.80;99.90;;;;;;4993012;28;20248;-56
2022/06/13 05:33:39;;;;;;;14.88;4.13;;;16.00;99.90;;;;;;4992843;28;20264;-55
2022/06/13 05:36:08;;;;;;;11.27;4.35;;;16.10;99.90;;;;;;4992389;28;20196;-55
2022/06/13 05:38:55;;;;;;;9.13;4.25;;;16.00;99.90;;;;;;4975026;28;20212;-55
2022/06/13 05:41:21;;;;;;;9.77;4.07;;;16.10;99.90;;;;;;4992401;28;20533;-56
2022/06/13 05:43:47;;;;;;;7.03;3.30;;;16.20;99.90;;;;;;4992308;28;20177;-56
2022/06/13 05:46:19;;;;;;;11.05;4.13;;;16.40;99.90;;;;;;4992358;28;20164;-56
2022/06/13 05:48:45;;;;;;;11.45;4.18;;;16.50;99.90;;;;;;4992135;28;20223;-56
2022/06/13 05:51:10;;;;;;;7.40;3.47;;;16.60;99.90;;;;;;4992461;28;20169;-56
2022/06/13 05:53:36;;;;;;;10.60;4.10;;;16.50;99.90;;;;;;4992498;28;20256;-56
2022/06/13 05:56:02;;;;;;;9.00;4.53;;;16.40;99.90;;;;;;4992634;28;20507;-56
2022/06/13 05:58:28;;;;;;;9.02;4.10;;;16.30;99.90;;;;;;4992377;28;20212;-56
2022/06/13 06:01:01;;;;;;;9.55;4.22;;;16.50;99.90;;;;;;4992616;28;20164;-56
2022/06/13 06:03:27;;;;;;;9.90;4.35;;;16.60;99.90;;;;;;4992809;28;20195;-56
2022/06/13 06:05:54;;;;;;;9.85;4.53;;;17.00;99.90;;;;;;4992609;28;20622;-56
2022/06/13 06:08:24;;;;;;;10.20;4.40;;;17.00;99.90;;;;;;4992316;28;20176;-55
2022/06/13 06:10:53;;;;;;;9.88;3.97;;;16.80;99.90;;;;;;4992315;28;20626;-56
2022/06/13 06:13:19;;;;;;;14.75;4.38;;;16.60;99.90;;;;;;4992123;28;20630;-55
2022/06/13 06:15:46;;;;;;;10.80;4.70;;;16.40;99.90;;;;;;4992274;28;20191;-56
2022/06/13 06:18:13;;;;;;;8.82;3.92;;;16.30;99.90;;;;;;4992146;28;20200;-56
2022/06/13 06:20:39;;;;;;;6.55;4.03;;;16.20;99.90;;;;;;4992272;28;20184;-55
2022/06/13 06:23:06;;;;;;;11.85;4.50;;;16.30;99.90;;;;;;4992248;28;20169;-56
2022/06/13 06:25:32;;;;;;;14.02;4.13;;;16.40;99.90;;;;;;4992150;28;20184;-56
2022/06/13 06:27:58;;;;;;;7.15;3.97;;;16.40;99.90;;;;;;4992144;28;20169;-56
2022/06/13 06:30:27;;;;;;;8.18;3.97;;;16.60;99.90;;;;;;4992431;28;20256;-56
2022/06/13 06:32:56;;;;;;;8.82;4.10;;;16.70;99.90;;;;;;4992652;28;20216;-55
2022/06/13 06:35:27;;;;;;;6.47;3.53;;;16.70;99.90;;;;;;4992668;28;20195;-56
2022/06/13 06:37:54;;;;;;;9.20;3.70;;;16.60;99.90;;;;;;4992176;28;20304;-56
2022/06/13 06:40:23;;;;;;;9.45;3.58;;;16.60;99.90;;;;;;4994595;28;20165;-56
2022/06/13 06:42:49;;;;;;;8.98;4.35;;;16.80;99.90;;;;;;4995662;28;20619;-55
2022/06/13 06:45:15;;;;;;;10.55;4.82;;;17.10;99.90;;;;;;4995761;28;20232;-56
2022/06/13 06:47:41;;;;;;;8.63;4.03;;;17.10;99.90;;;;;;4995491;28;20172;-55
2022/06/13 06:50:15;;;;;;;11.05;4.75;;;17.10;99.90;;;;;;4995541;28;20173;-56
2022/06/13 06:52:42;;;;;;;12.90;4.50;;;17.20;99.90;;;;;;4995460;28;20184;-55
2022/06/13 07:00:50;;;;;;;9.70;4.10;;;17.50;99.90;;;;;;4995641;28;20176;-56
2022/06/13 07:03:16;;;;;;;13.57;4.85;;;17.80;99.90;;;;;;4977730;28;20527;-56
2022/06/13 07:05:42;;;;;;;15.70;5.18;;;17.90;99.90;;;;;;4995328;28;20183;-56
2022/06/13 07:08:08;;;;;;;10.90;4.68;;;18.00;99.90;;;;;;4995200;28;20243;-56
2022/06/13 07:10:34;;;;;;;10.52;4.93;;;17.80;99.90;;;;;;4995522;28;20256;-56
2022/06/13 07:12:59;;;;;;;17.42;5.75;;;17.90;99.90;;;;;;4995071;28;20208;-56
2022/06/13 07:15:25;;;;;;;13.70;6.00;;;17.90;99.90;;;;;;4995426;28;20252;-56
2022/06/13 07:17:51;;;;;;;14.95;5.88;;;17.70;99.90;;;;;;4995569;28;20212;-56
2022/06/13 07:20:17;;;;;;;16.77;7.47;;;17.90;99.90;;;;;;4994952;28;20204;-56
2022/06/13 07:22:51;;;;;;;13.82;6.65;;;18.10;99.90;;;;;;4994944;28;20208;-56
2022/06/13 07:25:24;;;;;;;10.25;5.68;;;18.40;99.90;;;;;;4995104;28;20168;-56
2022/06/13 07:27:50;;;;;;;14.20;6.35;;;18.80;99.90;;;;;;4994817;28;20172;-56
2022/06/13 07:30:19;;;;;;;16.02;8.75;;;18.90;99.90;;;;;;4994769;28;20171;-56
2022/06/13 07:32:46;;;;;;;20.48;8.40;;;18.80;99.90;;;;;;4994726;28;20215;-56
2022/06/13 07:35:15;;;;;;;16.13;8.48;;;18.60;99.90;;;;;;4994679;28;20255;-56
2022/06/13 07:40:26;;;;;;;22.40;9.15;;;18.70;99.90;;;;;;4994983;28;20176;-56
2022/06/13 07:42:55;;;;;;;16.13;9.55;;;18.20;99.90;;;;;;4994855;28;20165;-56
2022/06/13 07:45:24;;;;;;;22.52;10.70;;;18.10;99.90;;;;;;4994665;28;20222;-56
2022/06/13 07:47:51;;;;;;;19.40;10.05;;;18.30;99.90;;;;;;4994336;28;20176;-56
2022/06/13 07:50:20;;;;;;;24.20;11.15;;;18.40;99.90;;;;;;4994144;28;20201;-56
2022/06/13 07:52:49;;;;;;;18.55;10.57;;;18.50;99.90;;;;;;4994656;28;20196;-56
2022/06/13 07:55:15;;;;;;;20.35;8.65;;;18.70;99.90;;;;;;4994649;28;20536;-56
2022/06/13 07:57:41;;;;;;;20.73;9.25;;;18.60;99.90;;;;;;4994282;28;20205;-56
2022/06/13 08:00:11;;;;;;;20.65;9.55;;;18.80;99.90;;;;;;4994518;28;20176;-56
2022/06/13 08:02:38;;;;;;;18.65;10.10;;;19.00;99.90;;;;;;4994447;28;20569;-56
2022/06/13 08:05:05;;;;;;;22.65;10.13;;;19.30;99.90;;;;;;4994206;28;20180;-56
2022/06/13 08:07:30;;;;;;;21.65;9.65;;;19.30;99.90;;;;;;4994117;28;20176;-56
2022/06/13 08:09:57;;;;;;;21.45;10.98;;;19.60;99.90;;;;;;4994007;28;20191;-57
2022/06/13 08:12:23;;;;;;;19.85;9.70;;;19.60;99.90;;;;;;4994224;28;20590;-56
2022/06/13 08:14:49;;;;;;;17.05;9.00;;;19.50;99.90;;;;;;4993860;28;20165;-56
2022/06/13 08:17:18;;;;;;;19.60;9.88;;;19.70;99.90;;;;;;4993939;28;20173;-56
2022/06/13 08:19:44;;;;;;;24.42;10.48;;;19.90;99.90;;;;;;4993907;28;20246;-56
2022/06/13 08:22:10;;;;;;;17.02;9.32;;;19.80;99.90;;;;;;4993852;28;20619;-56
2022/06/13 08:24:36;;;;;;;16.45;8.75;;;19.70;99.90;;;;;;4993825;28;20169;-56
2022/06/13 08:27:01;;;;;;;18.58;10.15;;;19.90;99.90;;;;;;4994025;28;20169;-56
2022/06/13 08:29:27;;;;;;;17.42;8.90;;;19.40;99.90;;;;;;4993630;28;20200;-56
2022/06/13 08:31:53;;;;;;;17.75;7.32;;;19.40;99.90;;;;;;4993593;28;20177;-56
2022/06/13 08:34:19;;;;;;;17.92;7.85;;;19.10;99.90;;;;;;4993498;28;20660;-56
2022/06/13 08:36:45;;;;;;;18.80;7.50;;;19.20;99.90;;;;;;4993614;28;20605;-56
2022/06/13 08:39:10;;;;;;;12.40;6.13;;;19.20;99.90;;;;;;4993114;28;20205;-56
2022/06/13 08:41:45;;;;;;;13.45;7.15;;;19.20;99.90;;;;;;4993286;28;20172;-57
2022/06/13 08:44:14;;;;;;;14.88;6.18;;;19.70;99.90;;;;;;4993429;28;20633;-57
2022/06/13 08:46:55;;;;;;;17.90;5.38;;;19.90;99.90;;;;;;4993159;28;20173;-57
2022/06/13 08:50:03;;;;;;;13.20;4.53;;;20.10;99.90;;;;;;4993232;28;20228;-57
2022/06/13 08:52:31;;;;;;;15.15;5.22;;;20.50;99.90;;;;;;4970327;28;20573;-57
2022/06/13 08:55:10;;;;;;;10.77;4.95;;;20.30;99.90;;;;;;4993109;28;20180;-58
2022/06/13 08:57:47;;;;;;;11.77;4.80;;;19.90;99.90;;;;;;4993063;28;20160;-57
2022/06/13 09:00:17;;;;;;;12.15;4.63;;;19.80;99.90;;;;;;4993163;28;20165;-57
2022/06/13 09:03:00;;;;;;;14.52;4.43;;;19.60;99.90;;;;;;4992438;28;20208;-57
2022/06/13 09:05:38;;;;;;;10.38;3.15;;;20.00;99.90;;;;;;4993304;28;20180;-57
2022/06/13 09:08:38;;;;;;;8.98;3.92;;;19.70;99.90;;;;;;4993031;28;20172;-57
2022/06/13 09:11:27;;;;;;;14.10;4.13;;;19.90;99.90;;;;;;4992236;28;20192;-57
2022/06/13 09:14:20;;;;;;;8.73;4.35;;;20.00;99.90;;;;;;4993194;28;20168;-57
2022/06/13 09:16:58;;;;;;;9.32;3.78;;;20.10;99.90;;;;;;4992621;28;20169;-57
2022/06/13 09:19:32;;;;;;;9.70;3.80;;;19.80;99.90;;;;;;4992858;28;20209;-57
2022/06/13 09:22:26;;;;;;;12.35;4.38;;;20.00;99.90;;;;;;4992648;28;20172;-57
2022/06/13 09:25:16;;;;;;;8.57;4.15;;;19.90;99.90;;;;;;4992872;28;20169;-57
2022/06/13 09:28:01;;;;;;;12.57;3.95;;;19.90;99.90;;;;;;4992482;28;20295;-57
2022/06/13 09:30:35;;;;;;;11.88;4.60;;;19.70;99.90;;;;;;4992707;28;20202;-57
2022/06/13 09:33:11;;;;;;;10.23;3.83;;;19.80;99.90;;;;;;4992761;28;20175;-57
2022/06/13 09:35:55;;;;;;;7.20;3.40;;;19.70;99.90;;;;;;4992827;28;20323;-57
2022/06/13 09:38:34;;;;;;;6.43;3.05;;;19.70;99.90;;;;;;4992852;28;20744;-57
2022/06/13 09:40:59;;;;;;;14.20;4.22;;;19.90;99.90;;;;;;4992718;28;20210;-57
2022/06/13 09:43:48;;;;;;;12.30;3.80;;;20.40;99.90;;;;;;4992823;28;20523;-57
2022/06/13 09:46:35;;;;;;;12.20;4.00;;;20.50;99.90;;;;;;4992687;28;20172;-57
2022/06/13 09:49:36;;;;;;;10.48;4.00;;;20.50;99.90;;;;;;4992422;28;20251;-57
2022/06/13 09:52:18;;;;;;;10.68;4.07;;;20.60;99.90;;;;;;4992567;28;20199;-57
2022/06/13 09:55:01;;;;;;;8.32;3.58;;;20.60;99.90;;;;;;4992930;28;20164;-57
2022/06/13 09:57:53;;;;;;;9.00;3.58;;;21.00;99.90;;;;;;4992182;28;20168;-57
2022/06/13 10:00:36;;;;;;;12.43;4.88;;;20.90;99.90;;;;;;4969515;28;20194;-57
2022/06/13 10:03:30;;;;;;;8.75;3.45;;;20.90;99.90;;;;;;4992048;28;20168;-58
2022/06/13 10:06:25;;;;;;;12.68;4.45;;;20.40;99.90;;;;;;4992535;28;20579;-57
2022/06/13 10:09:21;;;;;;;9.68;3.97;;;20.70;99.90;;;;;;4992787;28;20267;-57
2022/06/13 10:12:06;;;;;;;9.98;4.35;;;20.40;99.90;;;;;;4948083;28;20239;-57
2022/06/13 10:15:01;;;;;;;14.27;4.18;;;21.00;99.90;;;;;;4995351;28;20164;-57
2022/06/13 10:17:58;;;;;;;11.68;3.75;;;21.50;99.90;;;;;;4996082;28;20176;-57
2022/06/13 10:20:47;;;;;;;11.55;3.58;;;21.50;99.90;;;;;;4996198;28;20279;-57
2022/06/13 10:23:44;;;;;;;8.18;3.17;;;21.40;99.90;;;;;;4962445;28;20173;-57
2022/06/13 10:26:28;;;;;;;8.63;3.25;;;21.20;99.90;;;;;;4995538;28;20173;-57
2022/06/13 10:29:31;;;;;;;12.00;3.38;;;21.10;99.90;;;;;;4995705;28;20620;-57
2022/06/13 10:32:21;;;;;;;9.73;3.10;;;20.80;99.90;;;;;;4995024;28;20172;-57
2022/06/13 10:34:49;;;;;;;7.88;3.03;;;20.90;99.90;;;;;;4978324;28;20169;-57
2022/06/13 10:37:24;;;;;;;9.52;3.65;;;20.40;99.90;;;;;;4995519;28;20646;-57
2022/06/13 10:39:55;;;;;;;9.60;3.25;;;20.20;99.90;;;;;;4996026;28;20199;-57
2022/06/13 10:42:24;;;;;;;11.45;3.10;;;20.30;99.90;;;;;;4995868;28;20689;-57
2022/06/13 10:44:50;;;;;;;10.63;3.78;;;20.80;99.90;;;;;;4995954;28;20252;-58
2022/06/13 10:47:28;;;;;;;6.53;2.70;;;21.10;99.90;;;;;;4995563;28;20646;-58
2022/06/13 10:50:18;;;;;;;8.02;3.17;;;20.90;99.90;;;;;;4995648;28;20231;-58
2022/06/13 10:52:48;;;;;;;9.00;3.13;;;20.80;99.90;;;;;;4977433;28;20180;-58
2022/06/13 10:55:19;;;;;;;9.98;3.28;;;20.90;99.90;;;;;;4995627;28;20177;-58
2022/06/13 10:58:00;;;;;;;12.27;3.38;;;21.50;99.90;;;;;;4995299;28;20698;-58
2022/06/13 11:00:28;;;;;;;9.02;3.33;;;21.50;99.90;;;;;;4995424;28;20175;-57
2022/06/13 11:03:14;;;;;;;10.13;3.50;;;21.80;99.90;;;;;;4995529;28;20665;-58
2022/06/13 11:06:17;;;;;;;7.53;2.78;;;21.70;99.90;;;;;;4995249;28;20634;-57
2022/06/13 11:08:43;;;;;;;9.02;2.80;;;21.10;99.90;;;;;;4985544;28;21123;-56
2022/06/13 11:11:16;;;;;;;11.38;2.90;;;21.30;99.90;;;;;;4994900;28;20185;-56
2022/06/13 11:13:50;;;;;;;7.07;3.17;;;21.30;99.90;;;;;;4996893;28;20176;-56
2022/06/13 11:22:37;;;;;;;9.85;2.88;;;22.00;99.90;;;;;;5014677;28;20269;-56
2022/06/13 11:22:38;;;;;;;7.93;2.78;;;21.60;99.90;;;;;;5014380;28;20225;-56
2022/06/13 11:25:16;;;;;;;8.55;2.88;;;21.40;99.90;;;;;;5013634;28;20180;-56
2022/06/13 11:27:42;;;;;;;8.25;2.85;;;21.30;99.90;;;;;;5014459;28;20536;-56
2022/06/13 11:30:32;;;;;;;9.32;3.08;;;21.40;99.90;;;;;;5014598;28;20172;-56
2022/06/13 11:33:13;;;;;;;11.30;2.70;;;21.90;99.90;;;;;;5014263;28;20172;-56
2022/06/13 11:35:56;;;;;;;12.57;3.15;;;21.50;99.90;;;;;;5013980;28;20179;-56
2022/06/13 11:38:37;;;;;;;14.45;2.97;;;21.30;99.90;;;;;;4996722;28;20211;-56
2022/06/13 11:41:13;;;;;;;6.10;2.55;;;20.90;99.90;;;;;;5013585;28;20164;-56
2022/06/13 11:44:02;;;;;;;6.20;2.28;;;20.60;99.90;;;;;;5013662;28;20574;-56
2022/06/13 11:46:27;;;;;;;7.25;2.63;;;20.90;99.90;;;;;;5013841;28;20172;-56
2022/06/13 11:48:55;;;;;;;9.00;2.45;;;21.20;99.90;;;;;;5013682;28;20701;-56
2022/06/13 11:51:26;;;;;;;7.63;2.25;;;21.60;99.90;;;;;;5013825;28;20230;-56
2022/06/13 11:53:55;;;;;;;9.43;2.47;;;21.60;99.90;;;;;;5013799;28;20200;-57
2022/06/13 11:56:27;;;;;;;7.63;2.35;;;21.90;99.90;;;;;;5013544;28;20223;-57
2022/06/13 11:58:56;;;;;;;9.10;2.88;;;21.90;99.90;;;;;;5013890;28;20210;-56
2022/06/13 12:01:37;;;;;;;6.53;2.38;;;22.00;99.90;;;;;;5013861;28;20184;-57
2022/06/13 12:04:07;;;;;;;11.00;3.08;;;22.50;99.90;;;;;;5013340;28;20638;-57
2022/06/13 12:06:48;;;;;;;10.50;3.00;;;22.80;99.90;;;;;;5013766;28;20572;-57
2022/06/13 12:09:19;;;;;;;7.38;2.80;;;22.40;99.90;;;;;;5013920;28;20172;-57
2022/06/13 12:11:48;;;;;;;9.45;2.92;;;22.40;99.90;;;;;;5013364;28;20164;-56
2022/06/13 12:14:14;;;;;;;7.70;2.55;;;22.80;99.90;;;;;;5013383;28;20670;-56
2022/06/13 12:17:08;;;;;;;5.47;2.10;;;23.10;99.90;;;;;;5013220;28;20160;-57
2022/06/13 12:19:40;;;;;;;9.93;2.47;;;22.60;98.10;;;;;;5012545;28;20220;-57
2022/06/13 12:22:20;;;;;;;4.80;2.00;;;22.60;99.30;;;;;;5013262;28;20168;-57
2022/06/13 12:25:04;;;;;;;7.85;2.58;;;22.30;99.90;;;;;;5013049;28;20707;-57
2022/06/13 12:27:48;;;;;;;9.60;2.75;;;22.10;99.90;;;;;;5013137;28;20234;-57
2022/06/13 12:30:25;;;;;;;6.93;2.30;;;21.90;99.90;;;;;;5012583;28;20164;-57
2022/06/13 12:33:10;;;;;;;5.28;2.05;;;22.10;99.90;;;;;;5013594;28;20644;-57
2022/06/13 12:35:59;;;;;;;7.90;2.53;;;22.70;99.90;;;;;;5012986;28;20168;-57
2022/06/13 12:38:39;;;;;;;10.65;2.30;;;22.10;99.90;;;;;;5012220;28;20203;-57
2022/06/13 12:41:14;;;;;;;6.07;2.83;;;22.00;99.90;;;;;;5012393;28;20168;-57
2022/06/13 12:44:11;;;;;;;3.92;1.95;;;22.40;99.90;;;;;;5012928;28;20172;-56
2022/06/13 12:46:50;;;;;;;3.03;1.60;;;23.50;98.90;;;;;;5012851;28;20168;-57
2022/06/13 12:49:42;;;;;;;5.70;1.83;;;22.50;99.90;;;;;;5012626;28;20218;-57
2022/06/13 12:52:45;;;;;;;5.25;1.75;;;22.90;99.90;;;;;;5012969;28;20626;-56
2022/06/13 12:55:22;;;;;;;7.75;1.70;;;22.70;99.90;;;;;;5012351;28;20180;-56
2022/06/13 12:58:06;;;;;;;4.20;1.80;;;22.70;99.90;;;;;;5012566;28;20234;-57
2022/06/13 13:00:50;;;;;;;2.35;1.60;;;22.70;98.30;;;;;;5012886;28;20175;-57
2022/06/13 13:03:44;;;;;;;3.95;1.60;;;22.90;95.70;;;;;;5012626;28;20626;-57
2022/06/13 13:06:34;;;;;;;9.27;2.00;;;23.10;94.50;;;;;;5007278;28;20188;-57
2022/06/13 13:09:09;;;;;;;5.45;1.80;;;23.30;94.60;;;;;;5012535;28;20172;-57
2022/06/13 13:11:46;;;;;;;4.03;2.00;;;23.10;92.90;;;;;;5012736;28;20167;-57
2022/06/13 13:14:44;;;;;;;3.03;1.92;;;23.20;96.30;;;;;;5012610;28;20170;-56
2022/06/13 13:17:18;;;;;;;6.28;1.80;;;23.00;98.20;;;;;;4991471;28;20203;-57
2022/06/13 13:19:49;;;;;;;4.32;2.20;;;23.20;99.90;;;;;;5011920;28;20199;-56
2022/06/13 13:22:21;;;;;;;7.03;2.20;;;23.00;99.50;;;;;;5012023;28;20160;-57
2022/06/13 13:25:16;;;;;;;7.40;2.10;;;22.80;95.60;;;;;;5012075;28;20715;-56
2022/06/13 13:27:50;;;;;;;5.95;2.30;;;23.00;94.80;;;;;;5012464;28;20563;-57
2022/06/13 13:30:20;;;;;;;8.45;2.28;;;23.30;94.70;;;;;;5012125;28;20222;-57
2022/06/13 13:33:09;;;;;;;4.35;1.80;;;23.10;96.70;;;;;;5012211;28;20659;-57
2022/06/13 13:35:46;;;;;;;6.22;1.85;;;23.00;98.50;;;;;;5012109;28;20172;-57
2022/06/13 13:38:29;;;;;;;2.30;1.48;;;22.80;97.40;;;;;;5011872;28;20609;-57
2022/06/13 13:41:01;;;;;;;5.82;1.92;;;22.80;98.90;;;;;;5011441;28;20532;-56
2022/06/13 13:43:43;;;;;;;5.20;1.88;;;23.00;99.90;;;;;;4994472;28;20257;-57